Time;durP1;ratioP1;P1;durP2;ratioP2;P2;SDS_P1;SDS_P2;PMS_P1;PMS_P2;Temp;Humidity;BMP_temperature;BMP_pressure;BME280_temperature;BME280_humidity;BME280_pressure;Samples;Min_cycle;Max_cycle;Signal;HPM_P1;HPM_P2
2023/04/02 00:03:41;;;;;;;22.40;15.90;;;;;;;11.69;69.92;97905.54;223791;182;145633;-75
2023/04/02 00:08:44;;;;;;;20.90;15.70;;;;;;;11.73;70.02;97908.03;223715;183;138590;-76
2023/04/02 00:13:48;;;;;;;23.30;16.60;;;;;;;11.78;69.71;97910.20;222896;182;137142;-76
2023/04/02 00:18:55;;;;;;;21.20;15.80;;;;;;;11.80;69.63;97910.55;222962;182;145840;-77
2023/04/02 00:24:00;;;;;;;20.10;14.20;;;;;;;11.84;69.46;97913.31;223859;183;138313;-77
2023/04/02 00:29:06;;;;;;;17.90;14.00;;;;;;;11.83;69.16;97922.04;223970;182;137227;-75
2023/04/02 00:34:17;;;;;;;18.10;13.80;;;;;;;11.86;69.20;97920.63;223921;183;145956;-76
2023/04/02 00:39:26;;;;;;;15.60;11.50;;;;;;;11.84;69.21;97918.81;223860;183;138852;-76
2023/04/02 00:44:31;;;;;;;13.70;10.20;;;;;;;11.80;69.12;97922.15;223714;182;136976;-77
2023/04/02 00:49:38;;;;;;;15.10;10.60;;;;;;;11.77;69.10;97922.06;223840;182;147552;-77
2023/04/02 00:54:49;;;;;;;14.10;11.30;;;;;;;11.77;68.91;97925.59;223948;182;138965;-77
2023/04/02 00:59:56;;;;;;;13.70;10.90;;;;;;;11.77;68.69;97932.23;223998;182;136908;-78
2023/04/02 01:05:22;;;;;;;15.10;11.40;;;;;;;11.75;68.49;97938.08;223558;182;145272;-76
2023/04/02 01:10:52;;;;;;;13.70;11.30;;;;;;;11.71;68.40;97946.20;223831;182;138661;-77
2023/04/02 01:16:20;;;;;;;15.40;12.30;;;;;;;11.66;68.51;97951.25;223877;183;137176;-78
2023/04/02 01:21:32;;;;;;;14.10;11.90;;;;;;;11.60;68.57;97956.73;223238;183;146701;-78
2023/04/02 01:27:00;;;;;;;13.60;11.50;;;;;;;11.55;68.66;97959.08;218655;183;138870;-77
2023/04/02 01:32:10;;;;;;;14.80;11.50;;;;;;;11.53;68.70;97963.91;222363;182;136598;-78
2023/04/02 01:37:38;;;;;;;16.00;11.10;;;;;;;11.52;68.61;97964.69;223617;182;145665;-78
2023/04/02 01:43:14;;;;;;;13.70;11.50;;;;;;;11.54;68.55;97969.45;223896;183;138659;-79
2023/04/02 01:48:23;;;;;;;17.00;11.50;;;;;;;11.57;68.28;97970.78;222768;183;137434;-79
2023/04/02 01:53:29;;;;;;;14.00;10.70;;;;;;;11.57;68.06;97967.58;223897;182;146133;-79
2023/04/02 01:58:33;;;;;;;14.40;11.10;;;;;;;11.55;68.03;97972.40;223904;183;138639;-79
2023/04/02 02:03:41;;;;;;;11.60;10.30;;;;;;;11.51;67.92;97974.55;223723;183;136755;-79
2023/04/02 02:08:58;;;;;;;14.40;10.10;;;;;;;11.46;67.95;97980.42;223833;183;145266;-80
2023/04/02 02:14:16;;;;;;;12.10;9.80;;;;;;;11.41;67.85;97988.67;223833;182;139763;-78
2023/04/02 02:19:37;;;;;;;12.90;10.20;;;;;;;11.36;67.64;97987.77;220059;182;137727;-77
2023/04/02 02:24:41;;;;;;;12.40;9.50;;;;;;;11.33;67.57;97992.89;223870;183;145408;-75
2023/04/02 02:29:48;;;;;;;11.00;9.00;;;;;;;11.29;67.58;97995.52;223941;183;139900;-75
2023/04/02 02:35:00;;;;;;;11.60;9.70;;;;;;;11.30;67.70;97994.89;223851;183;137423;-75
2023/04/02 02:40:11;;;;;;;12.20;10.20;;;;;;;11.33;67.62;97997.65;223881;183;146437;-74
2023/04/02 02:45:21;;;;;;;10.30;9.20;;;;;;;11.31;67.54;98000.66;223888;182;138471;-77
2023/04/02 02:50:31;;;;;;;13.90;11.80;;;;;;;11.28;67.60;98002.48;223859;183;138103;-75
2023/04/02 02:55:37;;;;;;;12.30;10.70;;;;;;;11.25;67.62;98011.44;219761;183;146034;-76
2023/04/02 03:00:49;;;;;;;12.70;10.10;;;;;;;11.22;67.57;98015.27;220910;183;138947;-78
2023/04/02 03:05:56;;;;;;;11.90;10.30;;;;;;;11.18;67.53;98020.55;223979;183;137245;-76
2023/04/02 03:11:01;;;;;;;11.60;9.50;;;;;;;11.13;67.67;98023.77;223253;182;147144;-77
2023/04/02 03:16:10;;;;;;;10.90;9.70;;;;;;;11.10;67.80;98026.52;219185;182;139005;-77
2023/04/02 03:21:27;;;;;;;12.90;9.90;;;;;;;11.07;67.92;98027.30;221598;183;138316;-77
2023/04/02 03:26:48;;;;;;;13.30;10.00;;;;;;;11.11;67.88;98029.48;221841;182;146557;-78
2023/04/02 03:32:10;;;;;;;13.50;10.40;;;;;;;11.15;67.84;98029.16;223882;182;138309;-79
2023/04/02 03:37:30;;;;;;;14.20;11.50;;;;;;;11.17;67.75;98028.86;223997;183;137399;-78
2023/04/02 03:42:58;;;;;;;13.40;11.10;;;;;;;11.15;67.67;98040.73;222723;180;145527;-77
2023/04/02 03:48:22;;;;;;;14.30;11.20;;;;;;;11.10;67.56;98044.97;223984;183;138934;-78
2023/04/02 03:53:28;;;;;;;12.40;10.60;;;;;;;11.05;67.64;98057.41;222604;182;137320;-76
2023/04/02 03:58:45;;;;;;;11.30;10.00;;;;;;;11.03;67.49;98063.83;222404;183;145047;-76
2023/04/02 04:03:54;;;;;;;12.80;10.20;;;;;;;10.99;67.55;98070.55;223934;183;138517;-76
2023/04/02 04:08:59;;;;;;;14.60;10.00;;;;;;;10.95;67.55;98073.73;221314;183;137297;-76
2023/04/02 04:14:17;;;;;;;11.70;9.60;;;;;;;10.90;67.65;98074.63;221399;182;145855;-75
2023/04/02 04:19:23;;;;;;;11.40;9.50;;;;;;;10.88;67.73;98080.61;223899;182;139501;-76
2023/04/02 04:24:27;;;;;;;12.90;9.90;;;;;;;10.93;67.90;98083.63;221576;182;138428;-76
2023/04/02 04:29:52;;;;;;;11.60;9.90;;;;;;;10.95;67.77;98087.75;224012;183;145668;-76
2023/04/02 04:35:20;;;;;;;11.20;10.00;;;;;;;10.97;67.64;98092.20;223603;183;139338;-75
2023/04/02 04:40:43;;;;;;;13.30;10.90;;;;;;;10.96;67.60;98096.71;223896;182;136923;-76
2023/04/02 04:45:58;;;;;;;13.50;11.00;;;;;;;10.95;67.40;98103.91;223839;182;145586;-75
2023/04/02 04:51:07;;;;;;;12.50;10.40;;;;;;;10.91;67.54;98111.13;223845;182;138443;-76
2023/04/02 04:56:11;;;;;;;13.00;11.00;;;;;;;10.90;67.61;98119.52;223911;182;137337;-75
2023/04/02 05:01:37;;;;;;;13.90;11.00;;;;;;;10.85;67.62;98125.20;223939;182;145481;-76
2023/04/02 05:06:54;;;;;;;12.00;9.80;;;;;;;10.81;67.76;98130.16;219336;182;138536;-79
2023/04/02 05:12:15;;;;;;;12.80;10.40;;;;;;;10.81;67.81;98138.28;223974;183;138412;-79
2023/04/02 05:17:26;;;;;;;62.90;48.30;;;;;;;10.88;68.14;98146.13;223814;183;145390;-76
2023/04/02 05:22:42;;;;;;;18.10;14.50;;;;;;;10.98;67.77;98146.92;223787;182;139179;-77
2023/04/02 05:34:03;;;;;;;15.00;11.40;;;;;;;11.02;67.29;98162.26;223779;183;147114;-73
2023/04/02 05:39:09;;;;;;;15.40;11.30;;;;;;;10.97;67.34;98167.76;223421;182;138497;-74
2023/04/02 05:44:25;;;;;;;14.30;11.20;;;;;;;10.94;67.44;98169.10;223956;182;258299;-73
2023/04/02 05:49:57;;;;;;;14.30;11.80;;;;;;;10.90;67.59;98170.06;223818;183;145244;-76
2023/04/02 05:55:10;;;;;;;56.90;40.50;;;;;;;10.88;67.80;98167.79;223711;182;140540;-76
2023/04/02 06:00:42;;;;;;;13.60;11.30;;;;;;;10.88;67.87;98174.16;223543;183;137520;-74
2023/04/02 06:05:46;;;;;;;11.00;9.00;;;;;;;10.89;67.80;98171.58;223885;182;145088;-73
2023/04/02 06:10:54;;;;;;;12.30;9.70;;;;;;;10.92;68.00;98178.08;223808;182;139009;-73
2023/04/02 06:16:00;;;;;;;12.00;8.60;;;;;;;10.97;68.11;98180.17;223779;184;136791;-73
2023/04/02 06:21:13;;;;;;;12.00;9.90;;;;;;;11.00;68.21;98182.63;223899;182;144928;-77
2023/04/02 06:26:32;;;;;;;145.60;106.00;;;;;;;11.01;68.34;98183.41;223764;183;139340;-78
2023/04/02 06:31:56;;;;;;;13.40;10.40;;;;;;;11.07;68.65;98191.84;223832;183;137729;-73
2023/04/02 06:37:10;;;;;;;11.00;9.30;;;;;;;11.05;68.33;98193.77;223728;182;147707;-73
2023/04/02 06:42:20;;;;;;;10.30;8.80;;;;;;;11.04;68.40;98203.09;223784;182;139123;-77
2023/04/02 06:47:41;;;;;;;10.30;8.20;;;;;;;11.04;68.27;98214.47;223666;182;137010;-77
2023/04/02 06:52:55;;;;;;;9.70;7.10;;;;;;;11.07;68.05;98223.77;223661;182;147941;-74
2023/04/02 06:57:59;;;;;;;8.60;7.30;;;;;;;11.12;67.99;98225.70;222457;182;138063;-73
2023/04/02 07:03:12;;;;;;;7.90;6.60;;;;;;;11.16;67.84;98224.71;223879;182;137872;-73
2023/04/02 07:08:15;;;;;;;7.30;6.50;;;;;;;11.22;67.54;98230.30;219509;183;147139;-73
2023/04/02 07:13:21;;;;;;;8.60;5.90;;;;;;;11.29;67.35;98232.42;220183;182;139315;-75
2023/04/02 07:18:29;;;;;;;6.70;5.80;;;;;;;11.29;67.07;98240.56;223908;182;137357;-76
2023/04/02 07:23:34;;;;;;;8.50;6.60;;;;;;;11.32;67.20;98241.02;223714;182;282731;-75
2023/04/02 07:28:38;;;;;;;8.80;6.50;;;;;;;11.31;66.91;98248.73;223877;182;138772;-76
2023/04/02 07:33:41;;;;;;;8.50;7.00;;;;;;;11.29;66.90;98256.68;222236;182;137498;-77
2023/04/02 07:38:45;;;;;;;111.50;84.00;;;;;;;11.25;66.82;98258.48;222839;182;148096;-79
2023/04/02 07:43:48;;;;;;;8.30;7.20;;;;;;;11.24;67.35;98262.61;222448;182;139122;-76
2023/04/02 07:48:51;;;;;;;7.30;6.40;;;;;;;11.28;67.39;98274.21;223821;183;138849;-77
2023/04/02 07:53:57;;;;;;;9.00;7.00;;;;;;;11.35;67.00;98273.12;223914;182;147839;-80
2023/04/02 07:59:00;;;;;;;9.10;7.60;;;;;;;11.35;66.83;98284.31;223535;183;138593;-78
2023/04/02 08:04:06;;;;;;;10.00;7.90;;;;;;;11.35;66.74;98285.21;223789;182;137379;-76
2023/04/02 08:09:10;;;;;;;8.80;7.90;;;;;;;11.37;66.74;98294.82;222132;182;147182;-78
2023/04/02 08:14:13;;;;;;;8.80;7.20;;;;;;;11.35;66.56;98297.11;222766;183;139295;-76
2023/04/02 08:19:17;;;;;;;9.20;6.80;;;;;;;11.28;66.57;98305.94;223939;182;137831;-80
2023/04/02 08:24:21;;;;;;;8.00;6.60;;;;;;;11.24;66.63;98318.88;223882;182;147434;-80
2023/04/02 08:29:24;;;;;;;94.30;69.60;;;;;;;11.19;66.71;98321.41;223864;182;138651;-75
2023/04/02 08:34:31;;;;;;;8.70;6.40;;;;;;;11.22;66.70;98337.86;223868;182;137462;-77
2023/04/02 08:39:34;;;;;;;1.50;1.20;;;;;;;11.13;65.71;98349.08;220215;183;146852;-76
2023/04/02 08:44:40;;;;;;;3.20;1.30;;;;;;;10.88;65.69;98360.80;221304;182;267994;-75
2023/04/02 08:49:52;;;;;;;130.90;97.40;;;;;;;10.63;66.26;98372.27;223926;182;137561;-75
2023/04/02 08:54:56;;;;;;;3.90;2.40;;;;;;;10.45;66.39;98388.48;222423;182;147869;-73
2023/04/02 09:00:14;;;;;;;1.40;1.20;;;;;;;10.32;66.33;98394.90;223825;182;138598;-74
2023/04/02 09:05:25;;;;;;;1.90;1.20;;;;;;;10.22;66.01;98404.80;222912;182;137588;-72
2023/04/02 09:10:41;;;;;;;56.30;39.80;;;;;;;10.10;66.68;98407.06;222354;183;147343;-74
2023/04/02 09:15:44;;;;;;;5.30;3.70;;;;;;;10.02;66.70;98415.55;222975;182;138734;-73
2023/04/02 09:20:48;;;;;;;350.40;246.80;;;;;;;9.92;66.55;98423.75;220034;183;137928;-73
2023/04/02 09:25:54;;;;;;;10.50;6.80;;;;;;;9.81;66.67;98431.39;223841;182;147394;-73
2023/04/02 09:36:43;;;;;;;3.50;1.50;;;;;;;9.55;66.48;98458.86;219355;182;137797;-76
2023/04/02 09:41:47;;;;;;;1.50;1.10;;;;;;;9.50;66.72;98466.47;223809;182;148188;-74
2023/04/02 09:47:25;;;;;;;1.80;1.20;;;;;;;9.47;66.75;98475.30;222501;182;138719;-73
2023/04/02 09:52:35;;;;;;;2.70;1.10;;;;;;;9.45;66.77;98486.59;223718;182;136529;-80
2023/04/02 09:57:39;;;;;;;2.60;1.60;;;;;;;9.37;66.55;98494.23;223765;183;146838;-76
2023/04/02 10:02:45;;;;;;;2.20;1.30;;;;;;;9.33;66.81;98506.71;222281;182;138191;-76
2023/04/02 10:07:54;;;;;;;2.90;1.50;;;;;;;9.25;67.04;98517.85;221657;182;137032;-74
2023/04/02 10:13:05;;;;;;;4.30;2.90;;;;;;;9.21;67.28;98520.21;223785;183;146408;-74
2023/04/02 10:18:20;;;;;;;6.50;4.60;;;;;;;9.24;68.14;98530.27;223672;183;138555;-75
2023/04/02 10:23:28;;;;;;;2.50;1.20;;;;;;;9.27;67.08;98541.09;223798;183;137887;-74
2023/04/02 10:28:56;;;;;;;3.10;1.10;;;;;;;9.25;67.05;98551.77;220578;182;146923;-79
2023/04/02 10:34:05;;;;;;;3.00;1.20;;;;;;;9.32;66.93;98561.98;223271;183;139835;-73
2023/04/02 10:39:13;;;;;;;2.00;1.40;;;;;;;9.35;66.66;98569.04;223837;182;138702;-74
2023/04/02 10:44:28;;;;;;;2.40;1.50;;;;;;;9.35;66.36;98578.41;223923;182;147390;-76
2023/04/02 10:49:54;;;;;;;2.30;1.40;;;;;;;9.26;65.74;98593.34;223849;182;138586;-73
2023/04/02 10:55:19;;;;;;;1.80;1.40;;;;;;;9.18;65.56;98600.76;223980;182;137592;-74
2023/04/02 11:00:36;;;;;;;1.40;0.90;;;;;;;9.10;65.74;98611.21;223671;183;147109;-74
2023/04/02 11:05:52;;;;;;;3.10;1.30;;;;;;;9.00;66.06;98617.49;222144;182;139197;-73
2023/04/02 11:11:29;;;;;;;1.20;0.90;;;;;;;8.98;65.26;98625.93;223944;182;136988;-75
2023/04/02 11:16:33;;;;;;;1.80;1.00;;;;;;;8.97;65.02;98641.33;221521;182;149168;-75
2023/04/02 11:21:45;;;;;;;1.30;1.00;;;;;;;8.92;64.06;98651.75;223631;182;138242;-78
2023/04/02 11:27:17;;;;;;;1.70;1.20;;;;;;;8.69;64.33;98661.30;223083;182;137287;-72
2023/04/02 11:32:22;;;;;;;2.40;1.10;;;;;;;8.70;64.72;98665.66;223668;182;147406;-73
2023/04/02 11:37:33;;;;;;;1.30;0.80;;;;;;;8.62;65.46;98676.23;223864;182;138861;-75
2023/04/02 11:42:44;;;;;;;1.30;0.90;;;;;;;8.56;65.61;98684.52;222326;182;138214;-75
2023/04/02 11:48:12;;;;;;;1.50;1.20;;;;;;;8.57;65.19;98686.08;223917;183;147485;-73
2023/04/02 11:53:20;;;;;;;2.20;1.30;;;;;;;8.66;64.67;98689.44;223845;182;139178;-74
2023/04/02 11:58:32;;;;;;;6.20;4.30;;;;;;;8.69;65.78;98694.36;223789;183;137016;-76
2023/04/02 12:04:02;;;;;;;3.30;1.80;;;;;;;8.77;64.93;98697.39;223814;182;146976;-76
2023/04/02 12:09:22;;;;;;;2.30;1.70;;;;;;;8.69;64.53;98703.55;223831;182;139803;-77
2023/04/02 12:14:34;;;;;;;1.30;1.20;;;;;;;8.61;64.35;98707.39;223838;181;137704;-75
2023/04/02 12:19:38;;;;;;;1.90;1.30;;;;;;;8.57;64.58;98709.38;223793;182;147395;-74
2023/04/02 12:24:41;;;;;;;1.50;1.20;;;;;;;8.53;64.88;98718.13;223770;182;138719;-75
2023/04/02 12:29:45;;;;;;;1.90;1.50;;;;;;;8.43;64.33;98722.58;223899;182;137143;-74
2023/04/02 12:34:50;;;;;;;5.30;1.60;;;;;;;8.39;65.39;98724.98;222961;182;147174;-74
2023/04/02 12:40:14;;;;;;;3.20;2.40;;;;;;;8.41;65.37;98726.56;223818;183;138287;-74
2023/04/02 12:45:32;;;;;;;3.80;1.60;;;;;;;8.42;65.06;98730.79;223826;182;138465;-74
2023/04/02 12:50:35;;;;;;;2.40;1.80;;;;;;;8.31;64.54;98737.55;221916;182;148610;-77
2023/04/02 12:55:46;;;;;;;2.60;1.80;;;;;;;8.36;65.32;98737.14;223911;182;140078;-76
2023/04/02 13:00:50;;;;;;;2.20;1.70;;;;;;;8.50;65.36;98738.43;223719;182;136411;-76
2023/04/02 13:05:56;;;;;;;240.70;154.80;;;;;;;8.57;66.22;98743.91;223839;182;147634;-74
2023/04/02 13:11:00;;;;;;;;;;;;;;;8.71;66.80;98749.80;223849;183;138842;-76
2023/04/02 13:16:24;;;;;;;2.40;2.20;;;;;;;8.76;66.02;98754.79;223892;182;131009;-75
2023/04/02 13:21:30;;;;;;;3.30;2.10;;;;;;;8.72;65.38;98767.55;223743;182;148450;-73
2023/04/02 13:26:34;;;;;;;;;;;;;;;8.56;65.41;98768.52;223812;182;138437;-74
2023/04/02 13:31:37;;;;;;;2.30;1.70;;;;;;;8.50;65.95;98776.13;223904;182;131243;-74
2023/04/02 13:36:40;;;;;;;3.20;1.90;;;;;;;8.50;66.50;98780.16;223844;182;147551;-75
2023/04/02 13:41:50;;;;;;;2.60;1.80;;;;;;;8.51;66.67;98784.33;223914;182;138201;-74
2023/04/02 13:46:54;;;;;;;2.30;1.60;;;;;;;8.54;66.72;98785.41;223784;183;136610;-74
2023/04/02 13:52:02;;;;;;;2.30;1.70;;;;;;;8.62;66.41;98787.48;223771;183;146979;-73
2023/04/02 13:57:06;;;;;;;89.40;60.60;;;;;;;8.69;66.59;98792.50;223814;183;139297;-73
2023/04/02 14:02:23;;;;;;;3.80;2.50;;;;;;;8.84;65.78;98796.09;220841;183;137282;-77
2023/04/02 14:07:32;;;;;;;3.50;2.40;;;;;;;8.80;64.45;98798.80;218395;182;147290;-78
2023/04/02 14:13:09;;;;;;;2.10;1.70;;;;;;;8.67;64.06;98805.19;223844;182;138869;-76
2023/04/02 14:18:21;;;;;;;3.40;1.60;;;;;;;8.50;63.95;98807.39;223902;182;138170;-77
2023/04/02 14:23:37;;;;;;;3.20;1.70;;;;;;;8.39;64.45;98820.27;223826;182;148357;-75
2023/04/02 14:28:56;;;;;;;1.70;1.30;;;;;;;8.39;65.19;98823.77;223300;182;138609;-74
2023/04/02 14:34:40;;;;;;;1.90;1.20;;;;;;;8.27;64.47;98834.47;222751;183;136531;-74
2023/04/02 14:39:46;;;;;;;2.10;1.50;;;;;;;8.18;64.03;98844.19;223773;183;147376;-72
2023/04/02 14:44:56;;;;;;;;;;;;;;;8.12;64.13;98851.73;223884;182;139223;-73
2023/04/02 14:50:12;;;;;;;74.50;56.60;;;;;;;8.16;64.85;98855.40;223938;182;130848;-75
2023/04/02 14:55:41;;;;;;;5.40;2.90;;;;;;;8.17;64.28;98862.11;223787;181;147447;-74
2023/04/02 15:00:54;;;;;;;1.70;1.10;;;;;;;8.09;64.08;98863.77;223857;182;139275;-74
2023/04/02 15:06:03;;;;;;;1.90;1.30;;;;;;;8.10;63.82;98871.31;223792;183;137170;-74
2023/04/02 15:11:15;;;;;;;1.60;1.20;;;;;;;8.05;63.93;98875.96;223811;182;146870;-75
2023/04/02 15:16:21;;;;;;;2.10;1.60;;;;;;;8.07;64.18;98880.80;220809;182;139430;-75
2023/04/02 15:21:28;;;;;;;2.10;1.40;;;;;;;8.01;64.09;98888.21;223789;183;136932;-77
2023/04/02 15:26:48;;;;;;;2.90;1.80;;;;;;;7.94;64.18;98898.66;223891;182;148569;-76
2023/04/02 15:31:56;;;;;;;2.90;1.60;;;;;;;7.89;64.35;98905.29;222768;182;139349;-79
2023/04/02 15:37:28;;;;;;;3.00;2.30;;;;;;;7.81;64.82;98909.95;223689;182;136933;-76
2023/04/02 15:43:18;;;;;;;2.40;2.10;;;;;;;7.85;65.01;98919.64;223950;182;146946;-74
2023/04/02 15:48:45;;;;;;;3.20;1.90;;;;;;;7.90;64.73;98925.19;223662;182;138635;-75
2023/04/02 15:54:32;;;;;;;3.50;2.10;;;;;;;7.92;64.15;98933.96;223950;183;136465;-76
2023/04/02 15:59:50;;;;;;;;;;;;;;;7.85;64.18;98938.19;223748;182;148387;-75
2023/04/02 16:04:59;;;;;;;3.80;2.50;;;;;;;7.71;64.22;98947.41;223898;182;139234;-75
2023/04/02 16:10:23;;;;;;;4.10;3.20;;;;;;;7.57;64.49;98956.02;223786;182;136958;-75
2023/04/02 16:15:49;;;;;;;13.60;9.00;;;;;;;7.56;64.33;98964.05;223783;183;147271;-75
2023/04/02 16:20:55;;;;;;;3.10;2.80;;;;;;;7.47;64.36;98970.16;223806;182;138836;-74
2023/04/02 16:26:11;;;;;;;4.50;3.20;;;;;;;7.46;64.68;98974.98;223898;182;140314;-76
2023/04/02 16:31:39;;;;;;;15.60;11.10;;;;;;;7.66;66.12;98981.20;223846;182;147076;-74
2023/04/02 16:36:43;;;;;;;4.00;3.30;;;;;;;7.73;64.23;98990.36;223867;182;138019;-74
2023/04/02 16:42:14;;;;;;;3.10;2.50;;;;;;;7.61;63.94;98996.63;223895;182;136405;-75
2023/04/02 16:48:08;;;;;;;3.30;2.80;;;;;;;7.55;63.93;99003.46;223810;182;147651;-74
2023/04/02 16:53:16;;;;;;;4.40;2.50;;;;;;;7.49;63.64;99007.12;223804;182;138045;-74
2023/04/02 16:58:30;;;;;;;3.30;2.40;;;;;;;7.47;63.88;99016.77;223901;182;136283;-73
2023/04/02 17:04:01;;;;;;;6.20;4.50;;;;;;;7.38;63.95;99022.84;223785;183;147543;-74
2023/04/02 17:09:25;;;;;;;3.50;2.60;;;;;;;7.34;64.01;99034.16;223772;182;139139;-75
2023/04/02 17:14:39;;;;;;;3.50;2.90;;;;;;;7.30;63.64;99044.58;223960;182;136419;-76
2023/04/02 17:19:43;;;;;;;3.70;2.30;;;;;;;7.27;63.92;99051.79;223846;182;147327;-73
2023/04/02 17:24:53;;;;;;;4.40;2.90;;;;;;;7.27;63.98;99058.30;223738;182;139016;-74
2023/04/02 17:30:11;;;;;;;13.10;7.80;;;;;;;7.29;63.63;99063.86;222617;183;136698;-75
2023/04/02 17:35:42;;;;;;;4.20;2.90;;;;;;;7.27;63.16;99066.45;223729;182;147809;-74
2023/04/02 17:41:01;;;;;;;2.90;2.30;;;;;;;7.23;62.87;99072.27;223795;182;138067;-73
2023/04/02 17:46:15;;;;;;;3.10;2.40;;;;;;;7.20;62.48;99080.89;223893;182;136204;-75
2023/04/02 17:51:44;;;;;;;4.70;2.80;;;;;;;7.06;62.42;99087.20;223864;182;146325;-76
2023/04/02 17:57:28;;;;;;;3.90;2.60;;;;;;;7.01;63.15;99092.40;223835;182;138218;-76
2023/04/02 18:02:55;;;;;;;2.50;2.10;;;;;;;6.96;63.20;99099.67;223876;182;137734;-76
2023/04/02 18:08:26;;;;;;;164.30;104.30;;;;;;;6.92;63.64;99105.48;223280;182;146845;-77
2023/04/02 18:13:35;;;;;;;4.40;3.20;;;;;;;7.05;63.75;99112.48;223554;183;139414;-74
2023/04/02 18:18:47;;;;;;;3.10;2.50;;;;;;;7.08;62.75;99118.52;223854;182;137121;-75
2023/04/02 18:24:33;;;;;;;2.90;2.50;;;;;;;7.07;62.54;99125.43;223880;183;147463;-79
2023/04/02 18:29:49;;;;;;;4.10;3.30;;;;;;;7.15;62.70;99130.88;223825;182;138157;-74
2023/04/02 18:34:55;;;;;;;3.30;2.50;;;;;;;7.12;62.53;99133.85;223640;182;136973;-74
2023/04/02 18:40:38;;;;;;;3.60;2.80;;;;;;;7.09;63.03;99139.64;221596;182;147246;-76
2023/04/02 18:45:59;;;;;;;4.40;2.60;;;;;;;7.10;62.71;99145.92;223221;182;139595;-73
2023/04/02 18:51:02;;;;;;;3.60;2.80;;;;;;;7.08;63.12;99149.35;223537;183;137500;-74
2023/04/02 18:56:15;;;;;;;4.20;2.90;;;;;;;7.06;63.23;99152.30;223505;183;146828;-75
2023/04/02 19:01:40;;;;;;;3.60;2.90;;;;;;;7.03;63.44;99162.31;222494;182;138431;-79
2023/04/02 19:07:12;;;;;;;4.60;3.20;;;;;;;7.00;63.46;99165.08;219007;205;136788;-78
2023/04/02 19:12:20;;;;;;;4.70;3.60;;;;;;;6.99;63.66;99168.69;223817;182;147450;-74
2023/04/02 19:24:14;;;;;;;4.00;3.20;;;;;;;6.94;63.84;99176.32;223881;182;136221;-80
2023/04/02 19:29:38;;;;;;;4.50;3.40;;;;;;;6.90;63.90;99175.62;223787;182;147550;-80
2023/04/02 19:35:02;;;;;;;6.00;3.30;;;;;;;6.90;63.66;99177.04;222689;182;139204;-81
2023/04/02 19:40:05;;;;;;;3.80;3.20;;;;;;;6.85;63.62;99180.07;223245;182;136645;-78
2023/04/02 19:45:34;;;;;;;4.70;3.20;;;;;;;6.82;63.46;99186.36;223223;179;147589;-77
2023/04/02 19:50:38;;;;;;;4.10;3.30;;;;;;;6.79;63.63;99191.78;223750;182;138349;-77
2023/04/02 19:55:42;;;;;;;4.10;2.60;;;;;;;6.83;63.62;99196.16;223829;182;138274;-78
2023/04/02 20:00:46;;;;;;;3.80;2.70;;;;;;;6.93;63.45;99199.27;223811;182;146950;-78
2023/04/02 20:05:50;;;;;;;3.80;2.30;;;;;;;6.96;63.48;99201.59;223861;183;138379;-78
2023/04/02 20:11:22;;;;;;;2.60;2.00;;;;;;;6.92;63.28;99201.95;223354;183;136462;-80
2023/04/02 20:16:26;;;;;;;3.10;2.10;;;;;;;6.83;63.55;99206.41;223811;182;146698;-79
2023/04/02 20:21:36;;;;;;;2.30;1.70;;;;;;;6.77;63.52;99207.02;223799;182;138888;-79
2023/04/02 20:26:40;;;;;;;3.30;1.80;;;;;;;6.67;64.14;99215.06;223843;182;137560;-80
2023/04/02 20:31:44;;;;;;;2.70;2.00;;;;;;;6.61;64.38;99217.07;223909;183;147419;-80
2023/04/02 20:36:47;;;;;;;2.50;1.80;;;;;;;6.52;64.43;99223.80;223827;182;138483;-82
2023/04/02 20:41:50;;;;;;;3.40;2.40;;;;;;;6.46;64.78;99227.40;223802;183;136580;-79
2023/04/02 20:47:11;;;;;;;5.30;3.10;;;;;;;6.41;64.77;99227.79;222966;183;147261;-81
2023/04/02 20:52:14;;;;;;;3.50;2.10;;;;;;;6.38;64.64;99230.36;223764;182;138280;-78
2023/04/02 20:57:20;;;;;;;2.80;2.20;;;;;;;6.35;64.66;99230.34;221863;183;136609;-77
2023/04/02 21:02:24;;;;;;;2.50;2.20;;;;;;;6.27;64.73;99233.29;223974;182;147677;-78
2023/04/02 21:07:27;;;;;;;2.80;2.40;;;;;;;6.21;65.11;99236.55;223867;182;138357;-77
2023/04/02 21:12:31;;;;;;;2.40;2.00;;;;;;;6.23;65.41;99237.54;223842;182;137091;-78
2023/04/02 21:17:34;;;;;;;3.50;2.30;;;;;;;6.26;65.59;99238.84;223764;182;147538;-76
2023/04/02 21:22:38;;;;;;;3.20;2.00;;;;;;;6.31;65.57;99247.09;223804;182;138810;-75
2023/04/02 21:27:41;;;;;;;4.70;2.40;;;;;;;6.28;65.56;99246.33;223741;182;136556;-76
2023/04/02 21:32:44;;;;;;;2.80;2.00;;;;;;;6.22;65.56;99246.39;223386;182;147748;-76
2023/04/02 21:37:48;;;;;;;2.90;2.20;;;;;;;6.19;65.38;99249.84;223840;182;138173;-77
2023/04/02 21:42:53;;;;;;;2.50;2.00;;;;;;;6.12;65.64;99249.80;223832;182;137038;-77
2023/04/02 21:47:56;;;;;;;;;;;;;;;6.06;65.76;99253.92;223438;182;148434;-77
2023/04/02 21:53:00;;;;;;;2.90;2.50;;;;;;;5.99;65.81;99257.16;223828;183;138624;-77
2023/04/02 21:58:04;;;;;;;2.40;2.00;;;;;;;5.92;66.25;99259.36;223719;183;136550;-76
2023/04/02 22:03:07;;;;;;;4.30;2.40;;;;;;;5.89;66.33;99264.91;223722;183;146950;-77
2023/04/02 22:08:13;;;;;;;2.80;2.40;;;;;;;5.87;66.56;99267.11;221635;183;138318;-78
2023/04/02 22:13:17;;;;;;;3.10;2.40;;;;;;;5.86;66.79;99267.70;223749;183;136941;-78
2023/04/02 22:18:21;;;;;;;3.80;2.50;;;;;;;5.84;66.96;99268.28;223092;184;147251;-79
2023/04/02 22:23:26;;;;;;;2.90;2.20;;;;;;;5.88;66.78;99268.31;222452;183;138692;-79
2023/04/02 22:28:30;;;;;;;3.40;1.80;;;;;;;5.97;66.79;99276.61;218642;183;137800;-78
2023/04/02 22:33:34;;;;;;;4.50;2.60;;;;;;;6.02;66.56;99277.87;223693;182;148050;-78
2023/04/02 22:38:53;;;;;;;3.40;2.30;;;;;;;6.01;66.46;99283.33;223714;184;138012;-79
2023/04/02 22:43:58;;;;;;;3.40;2.60;;;;;;;5.97;66.18;99284.91;223701;183;137521;-78
2023/04/02 22:49:02;;;;;;;2.90;2.20;;;;;;;5.89;66.32;99284.27;223802;183;147731;-78
2023/04/02 22:54:05;;;;;;;3.50;2.60;;;;;;;5.88;66.70;99285.89;223708;183;138834;-78
2023/04/02 22:59:09;;;;;;;3.20;2.60;;;;;;;5.89;66.64;99283.60;221442;183;137197;-79
2023/04/02 23:04:12;;;;;;;3.50;2.40;;;;;;;5.87;66.70;99284.73;223450;183;147001;-78
2023/04/02 23:09:16;;;;;;;2.50;2.20;;;;;;;5.85;66.68;99286.75;222893;183;138256;-79
2023/04/02 23:14:20;;;;;;;2.40;2.20;;;;;;;5.84;66.88;99286.61;223723;183;257891;-80
2023/04/02 23:19:23;;;;;;;3.40;2.40;;;;;;;5.83;66.83;99294.91;223766;183;147558;-80
2023/04/02 23:24:26;;;;;;;2.40;2.20;;;;;;;5.78;66.80;99299.68;223776;183;138288;-80
2023/04/02 23:29:30;;;;;;;2.90;2.10;;;;;;;5.75;66.91;99299.63;223698;183;137988;-80
2023/04/02 23:34:33;;;;;;;3.60;2.10;;;;;;;5.76;66.73;99306.64;223681;183;147721;-78
2023/04/02 23:39:37;;;;;;;2.60;2.00;;;;;;;5.78;66.58;99306.55;223683;184;138472;-77
2023/04/02 23:44:40;;;;;;;2.90;1.90;;;;;;;5.79;66.38;99310.05;223667;183;138558;-77
2023/04/02 23:49:46;;;;;;;3.60;2.50;;;;;;;5.76;66.05;99311.20;223823;182;148449;-79
2023/04/02 23:54:50;;;;;;;2.60;1.90;;;;;;;5.65;66.27;99311.11;223713;183;138465;-78
2023/04/02 23:59:53;;;;;;;2.90;1.90;;;;;;;5.59;66.46;99315.55;223837;182;138153;-79
